createdAt,value
2017-03-21T00:00:11.748Z,74.13
2017-03-21T00:01:11.743Z,74.51
2017-03-21T00:02:11.713Z,74.13
2017-03-21T00:03:11.710Z,74.32
2017-03-21T00:04:11.689Z,74.32
2017-03-21T00:05:11.667Z,74.13
2017-03-21T00:06:11.656Z,74.13
2017-03-21T00:07:11.653Z,74.41
2017-03-21T00:08:11.636Z,74.6
2017-03-21T00:09:11.605Z,74.51
2017-03-21T00:10:11.592Z,74.41
2017-03-21T00:11:11.591Z,75.26
2017-03-21T00:12:11.571Z,74.98
2017-03-21T00:13:11.561Z,75.26
2017-03-21T00:14:11.538Z,75.17
2017-03-21T00:15:11.531Z,75.45
2017-03-21T00:16:11.507Z,75.45
2017-03-21T00:17:11.497Z,75.83
2017-03-21T00:18:11.482Z,76.21
2017-03-21T00:19:11.454Z,76.21
2017-03-21T00:20:11.453Z,75.93
2017-03-21T00:21:11.432Z,76.31
2017-03-21T00:22:11.409Z,76.5
2017-03-21T00:23:11.392Z,76.31
2017-03-21T00:24:11.580Z,76.5
2017-03-21T00:25:11.069Z,76.87
2017-03-21T00:26:11.358Z,76.97
2017-03-21T00:27:11.335Z,76.97
2017-03-21T00:28:11.318Z,77.25
2017-03-21T00:29:11.002Z,77.15
2017-03-21T00:30:10.998Z,77.25
2017-03-21T00:31:10.981Z,77.25
2017-03-21T00:32:11.273Z,77.44
2017-03-21T00:33:11.252Z,77.25
2017-03-21T00:34:10.935Z,77.44
2017-03-21T00:35:10.920Z,77.25
2017-03-21T00:36:10.895Z,77.15
2017-03-21T00:37:11.192Z,77.91
2017-03-21T00:38:11.165Z,77.72
2017-03-21T00:39:11.153Z,77.34
2017-03-21T00:40:11.147Z,78.1
2017-03-21T00:41:10.829Z,78.1
2017-03-21T00:42:10.813Z,77.91
2017-03-21T00:43:10.789Z,77.72
2017-03-21T00:44:11.081Z,78.2
2017-03-21T00:45:11.072Z,78.01
2017-03-21T00:46:11.045Z,78.67
2017-03-21T00:47:11.043Z,78.76
2017-03-21T00:48:11.018Z,78.86
2017-03-21T00:49:11.008Z,78.76
2017-03-21T00:50:11.208Z,79.43
2017-03-21T00:51:10.969Z,79.52
2017-03-21T00:52:10.955Z,79.52
2017-03-21T00:53:25.553Z,79.71
2017-03-21T00:54:10.932Z,79.61
2017-03-21T00:55:10.919Z,80.27
2017-03-21T00:56:10.892Z,79.99
2017-03-21T00:57:10.887Z,80.94
2017-03-21T00:58:10.873Z,80.84
2017-03-21T00:59:11.057Z,80.75
2017-03-21T01:00:11.039Z,81.51
2017-03-21T01:01:10.818Z,81.6
2017-03-21T01:02:10.800Z,82.26
2017-03-21T01:03:10.787Z,82.83
2017-03-21T01:04:10.769Z,82.83
2017-03-21T01:05:10.764Z,82.64
2017-03-21T01:06:10.755Z,82.83
2017-03-21T01:07:10.725Z,82.73
2017-03-21T01:08:10.721Z,82.64
2017-03-21T01:09:10.697Z,82.92
2017-03-21T01:10:10.676Z,83.3
2017-03-21T01:11:10.663Z,83.59
2017-03-21T01:12:10.652Z,83.78
2017-03-21T01:13:10.643Z,83.68
2017-03-21T01:14:10.622Z,83.97
2017-03-21T01:15:10.604Z,84.16
2017-03-21T01:16:10.584Z,84.34
2017-03-21T01:17:10.586Z,84.81
2017-03-21T01:18:10.559Z,84.44
2017-03-21T01:19:10.556Z,85
2017-03-21T01:20:10.523Z,85.76
2017-03-21T01:21:10.512Z,85.47
2017-03-21T01:22:10.501Z,85.76
2017-03-21T01:23:10.493Z,85.76
2017-03-21T01:24:10.476Z,85.85
2017-03-21T01:25:10.459Z,85.85
2017-03-21T01:26:10.446Z,86.42
2017-03-21T01:27:10.413Z,86.23
2017-03-21T01:28:10.401Z,86.9
2017-03-21T01:29:10.098Z,86.9
2017-03-21T01:30:10.575Z,86.99
2017-03-21T01:31:10.367Z,87.37
2017-03-21T01:32:10.354Z,87.55
2017-03-21T01:33:10.333Z,87.27
2017-03-21T01:34:10.526Z,88.03
2017-03-21T01:35:10.305Z,87.93
2017-03-21T01:36:10.285Z,88.12
2017-03-21T01:37:10.268Z,87.84
2017-03-21T01:38:10.246Z,87.65
2017-03-21T01:39:10.243Z,88.12
2017-03-21T01:40:10.217Z,87.93
2017-03-21T01:41:10.199Z,88.03
2017-03-21T01:42:10.194Z,87.93
2017-03-21T01:43:10.166Z,88.31
2017-03-21T01:44:10.163Z,88.31
2017-03-21T01:45:10.135Z,88.6
2017-03-21T01:46:10.125Z,88.6
2017-03-21T01:47:10.115Z,88.69
2017-03-21T01:48:10.103Z,88.69
2017-03-21T01:49:10.079Z,89.36
2017-03-21T01:50:10.059Z,89.26
2017-03-21T01:51:10.045Z,89.54
2017-03-21T01:52:10.028Z,90.01
2017-03-21T01:53:10.015Z,89.92
2017-03-21T01:54:10.011Z,90.68
2017-03-21T01:55:09.680Z,90.3
2017-03-21T01:56:09.964Z,90.58
2017-03-21T01:57:09.951Z,90.86
2017-03-21T01:58:09.934Z,91.05
2017-03-21T01:59:09.923Z,91.15
2017-03-21T02:00:09.911Z,90.96
2017-03-21T02:01:09.902Z,91.34
2017-03-21T02:02:09.579Z,91.43
2017-03-21T02:03:09.857Z,91.91
2017-03-21T02:04:09.861Z,91.43
2017-03-21T02:05:09.826Z,91.53
2017-03-21T02:06:09.819Z,91.72
2017-03-21T02:07:09.804Z,92
2017-03-21T02:08:09.792Z,92.1
2017-03-21T02:09:09.774Z,92
2017-03-21T02:10:09.763Z,92
2017-03-21T02:11:09.738Z,92.38
2017-03-21T02:12:09.426Z,92.38
2017-03-21T02:13:09.720Z,92.1
2017-03-21T02:14:09.695Z,92.38
2017-03-21T02:15:09.372Z,92.29
2017-03-21T02:16:09.660Z,92.85
2017-03-21T02:17:09.659Z,92.66
2017-03-21T02:18:09.642Z,92.19
2017-03-21T02:19:09.632Z,91.81
2017-03-21T02:20:09.602Z,91.62
2017-03-21T02:21:09.600Z,90.96
2017-03-21T02:22:09.582Z,90.49
2017-03-21T02:23:09.559Z,89.54
2017-03-21T02:24:09.248Z,88.69
2017-03-21T02:25:09.538Z,87.93
2017-03-21T02:26:09.524Z,87.84
2017-03-21T02:27:09.498Z,87.55
2017-03-21T02:28:09.483Z,86.99
2017-03-21T02:29:09.477Z,86.52
2017-03-21T02:30:09.158Z,85.95
2017-03-21T02:31:09.433Z,85.95
2017-03-21T02:32:09.421Z,85.57
2017-03-21T02:33:09.419Z,85
2017-03-21T02:34:09.399Z,85
2017-03-21T02:35:09.385Z,84.53
2017-03-21T02:36:09.355Z,84.53
2017-03-21T02:37:09.357Z,84.06
2017-03-21T02:38:09.338Z,83.78
2017-03-21T02:39:09.315Z,84.06
2017-03-21T02:40:09.299Z,83.87
2017-03-21T02:41:09.299Z,83.97
2017-03-21T02:42:09.276Z,84.06
2017-03-21T02:43:09.262Z,83.59
2017-03-21T02:44:09.249Z,83.3
2017-03-21T02:45:08.921Z,83.4
2017-03-21T02:46:09.215Z,83.78
2017-03-21T02:47:09.202Z,83.59
2017-03-21T02:48:09.186Z,83.21
2017-03-21T02:49:09.172Z,83.3
2017-03-21T02:50:09.147Z,83.21
2017-03-21T02:51:09.127Z,83.3
2017-03-21T02:52:09.127Z,83.3
2017-03-21T02:53:09.110Z,82.92
2017-03-21T02:54:08.790Z,82.73
2017-03-21T02:55:09.078Z,82.92
2017-03-21T02:56:09.052Z,82.92
2017-03-21T02:57:09.053Z,82.92
2017-03-21T02:58:09.023Z,83.11
2017-03-21T02:59:09.009Z,83.3
2017-03-21T03:00:09.001Z,83.21
2017-03-21T03:01:08.974Z,83.3
2017-03-21T03:02:08.971Z,83.02
2017-03-21T03:03:08.951Z,83.3
2017-03-21T03:04:08.934Z,83.02
2017-03-21T03:05:08.915Z,82.83
2017-03-21T03:06:08.913Z,83.11
2017-03-21T03:07:08.595Z,83.21
2017-03-21T03:08:08.579Z,83.21
2017-03-21T03:09:08.869Z,83.11
2017-03-21T03:10:08.842Z,82.92
2017-03-21T03:11:08.838Z,82.92
2017-03-21T03:12:08.812Z,82.92
2017-03-21T03:13:08.809Z,83.3
2017-03-21T03:14:08.782Z,83.02
2017-03-21T03:15:08.777Z,83.02
2017-03-21T03:16:08.754Z,83.21
2017-03-21T03:17:08.735Z,83.11
2017-03-21T03:18:08.727Z,83.3
2017-03-21T03:19:08.720Z,83.3
2017-03-21T03:20:08.390Z,83.59
2017-03-21T03:21:08.684Z,83.78
2017-03-21T03:22:08.667Z,83.4
2017-03-21T03:23:08.648Z,83.59
2017-03-21T03:24:08.638Z,83.11
2017-03-21T03:25:08.619Z,83.49
2017-03-21T03:26:08.610Z,83.4
2017-03-21T03:27:08.591Z,83.49
2017-03-21T03:28:08.274Z,83.49
2017-03-21T03:29:08.562Z,83.49
2017-03-21T03:30:08.534Z,83.59
2017-03-21T03:31:08.530Z,84.16
2017-03-21T03:32:08.511Z,84.06
2017-03-21T03:33:08.503Z,83.78
2017-03-21T03:34:08.471Z,84.06
2017-03-21T03:35:08.457Z,83.87
2017-03-21T03:36:08.449Z,83.78
2017-03-21T03:37:08.437Z,83.87
2017-03-21T03:38:08.117Z,83.59
2017-03-21T03:39:08.394Z,84.06
2017-03-21T03:40:08.374Z,83.97
2017-03-21T03:41:08.359Z,84.06
2017-03-21T03:42:08.359Z,84.06
2017-03-21T03:43:08.334Z,84.06
2017-03-21T03:44:08.324Z,84.16
2017-03-21T03:45:08.298Z,84.53
2017-03-21T03:46:08.297Z,84.34
2017-03-21T03:47:08.266Z,84.06
2017-03-21T03:48:08.248Z,84.25
2017-03-21T03:49:08.239Z,84.34
2017-03-21T03:50:08.235Z,84.53
2017-03-21T03:51:08.213Z,84.53
2017-03-21T03:52:08.211Z,84.91
2017-03-21T03:53:08.184Z,84.53
2017-03-21T03:54:08.167Z,84.63
2017-03-21T03:55:08.150Z,84.91
2017-03-21T03:56:08.123Z,84.91
2017-03-21T03:57:08.120Z,85
2017-03-21T03:58:08.108Z,85.28
2017-03-21T03:59:08.082Z,84.72
2017-03-21T04:00:08.075Z,84.81
2017-03-21T04:01:08.044Z,84.81
2017-03-21T04:02:08.039Z,84.63
2017-03-21T04:03:08.017Z,85
2017-03-21T04:04:08.017Z,84.72
2017-03-21T04:05:07.994Z,85
2017-03-21T04:06:07.969Z,85.38
2017-03-21T04:07:07.957Z,85.47
2017-03-21T04:08:07.941Z,85.1
2017-03-21T04:09:07.924Z,85.85
2017-03-21T04:10:07.917Z,85.76
2017-03-21T04:11:07.897Z,85.47
2017-03-21T04:12:07.890Z,85.47
2017-03-21T04:13:07.855Z,85.66
2017-03-21T04:14:07.853Z,85.38
2017-03-21T04:15:07.839Z,85.95
2017-03-21T04:16:07.820Z,85.66
2017-03-21T04:17:07.800Z,85.76
2017-03-21T04:18:07.777Z,85.76
2017-03-21T04:19:07.777Z,86.14
2017-03-21T04:20:07.745Z,86.14
2017-03-21T04:21:07.738Z,86.04
2017-03-21T04:22:07.715Z,85.95
2017-03-21T04:23:07.698Z,86.33
2017-03-21T04:24:07.679Z,86.71
2017-03-21T04:25:07.658Z,86.42
2017-03-21T04:26:07.655Z,86.61
2017-03-21T04:27:07.642Z,86.8
2017-03-21T04:28:07.623Z,86.33
2017-03-21T04:29:07.612Z,86.71
2017-03-21T04:30:07.595Z,86.52
2017-03-21T04:31:07.564Z,86.42
2017-03-21T04:32:07.562Z,86.42
2017-03-21T04:33:07.548Z,86.9
2017-03-21T04:34:07.533Z,86.71
2017-03-21T04:35:07.506Z,86.52
2017-03-21T04:36:07.488Z,86.71
2017-03-21T04:37:07.482Z,87.08
2017-03-21T04:38:07.157Z,87.18
2017-03-21T04:39:07.439Z,87.08
2017-03-21T04:40:07.427Z,87.08
2017-03-21T04:41:07.407Z,87.08
2017-03-21T04:42:07.392Z,87.65
2017-03-21T04:43:07.388Z,87.18
2017-03-21T04:44:07.069Z,87.18
2017-03-21T04:45:07.355Z,87.46
2017-03-21T04:46:07.333Z,87.46
2017-03-21T04:47:07.324Z,87.65
2017-03-21T04:48:06.997Z,87.84
2017-03-21T04:49:07.282Z,88.03
2017-03-21T04:50:07.276Z,88.03
2017-03-21T04:51:07.243Z,88.03
2017-03-21T04:52:07.238Z,87.74
2017-03-21T04:53:07.232Z,88.22
2017-03-21T04:54:07.213Z,88.41
2017-03-21T04:55:07.191Z,88.22
2017-03-21T04:56:07.177Z,88.31
2017-03-21T04:57:07.149Z,88.6
2017-03-21T04:58:07.132Z,88.6
2017-03-21T04:59:07.116Z,88.5
2017-03-21T05:00:07.097Z,88.41
2017-03-21T05:01:07.081Z,88.5
2017-03-21T05:02:07.077Z,88.69
2017-03-21T05:03:07.062Z,88.6
2017-03-21T05:04:07.055Z,88.6
2017-03-21T05:05:07.018Z,88.31
2017-03-21T05:06:07.016Z,88.69
2017-03-21T05:07:07.004Z,89.17
2017-03-21T05:08:06.973Z,89.26
2017-03-21T05:09:06.960Z,89.17
2017-03-21T05:10:06.952Z,89.07
2017-03-21T05:11:06.922Z,89.07
2017-03-21T05:12:06.933Z,89.26
2017-03-21T05:13:06.905Z,89.26
2017-03-21T05:14:06.889Z,88.88
2017-03-21T05:15:06.876Z,88.98
2017-03-21T05:16:06.851Z,88.88
2017-03-21T05:17:06.828Z,89.45
2017-03-21T05:18:06.827Z,89.07
2017-03-21T05:19:06.811Z,89.45
2017-03-21T05:20:06.791Z,89.54
2017-03-21T05:21:06.770Z,89.83
2017-03-21T05:22:06.764Z,89.73
2017-03-21T05:23:06.735Z,89.83
2017-03-21T05:24:06.730Z,89.54
2017-03-21T05:25:06.705Z,90.11
2017-03-21T05:26:06.699Z,89.92
2017-03-21T05:27:06.687Z,89.92
2017-03-21T05:28:06.660Z,89.92
2017-03-21T05:29:06.653Z,90.3
2017-03-21T05:30:06.634Z,90.3
2017-03-21T05:31:06.610Z,90.3
2017-03-21T05:32:06.609Z,90.3
2017-03-21T05:33:06.595Z,90.3
2017-03-21T05:34:06.563Z,90.39
2017-03-21T05:35:06.559Z,90.58
2017-03-21T05:36:06.544Z,90.49
2017-03-21T05:37:06.518Z,90.77
2017-03-21T05:38:06.514Z,90.68
2017-03-21T05:39:06.497Z,90.58
2017-03-21T05:40:06.474Z,90.68
2017-03-21T05:41:06.457Z,90.86
2017-03-21T05:42:06.444Z,91.34
2017-03-21T05:43:06.440Z,91.15
2017-03-21T05:44:06.422Z,91.24
2017-03-21T05:45:06.407Z,91.24
2017-03-21T05:46:06.392Z,91.24
2017-03-21T05:47:06.365Z,91.43
2017-03-21T05:48:06.367Z,90.96
2017-03-21T05:49:06.334Z,91.24
2017-03-21T05:50:06.336Z,91.05
2017-03-21T05:51:06.311Z,91.43
2017-03-21T05:52:06.300Z,91.34
2017-03-21T05:53:06.272Z,91.24
2017-03-21T05:54:06.259Z,91.24
2017-03-21T05:55:06.245Z,91.24
2017-03-21T05:56:06.239Z,91.53
2017-03-21T05:57:06.227Z,91.24
2017-03-21T05:58:06.200Z,91.72
2017-03-21T05:59:06.194Z,91.34
2017-03-21T06:00:06.179Z,91.34
2017-03-21T06:01:06.151Z,91.43
2017-03-21T06:02:06.148Z,91.15
2017-03-21T06:03:06.136Z,91.24
2017-03-21T06:04:06.114Z,91.81
2017-03-21T06:05:05.799Z,91.62
2017-03-21T06:06:06.083Z,91.43
2017-03-21T06:07:06.069Z,91.34
2017-03-21T06:08:06.046Z,91.81
2017-03-21T06:09:06.042Z,91.62
2017-03-21T06:10:06.027Z,92.1
2017-03-21T06:11:06.001Z,92.38
2017-03-21T06:12:05.997Z,91.62
2017-03-21T06:13:05.974Z,92.19
2017-03-21T06:14:05.968Z,92.19
2017-03-21T06:15:05.944Z,92.29
2017-03-21T06:16:05.926Z,92.19
2017-03-21T06:17:05.909Z,92.19
2017-03-21T06:18:05.910Z,92.1
2017-03-21T06:19:05.895Z,92.29
2017-03-21T06:20:05.567Z,92.38
2017-03-21T06:21:05.548Z,92.19
2017-03-21T06:22:05.848Z,91.96
2017-03-21T06:23:05.821Z,92.14
2017-03-21T06:24:05.805Z,92.61
2017-03-21T06:25:05.797Z,92.33
2017-03-21T06:26:05.789Z,91.96
2017-03-21T06:27:05.771Z,91.48
2017-03-21T06:28:05.748Z,91.67
2017-03-21T06:29:05.742Z,91.67
2017-03-21T06:30:05.730Z,91.58
2017-03-21T06:31:05.711Z,91.86
2017-03-21T06:32:05.709Z,91.77
2017-03-21T06:33:05.686Z,91.39
2017-03-21T06:34:05.676Z,91.2
2017-03-21T06:35:05.649Z,90.91
2017-03-21T06:36:05.623Z,90.86
2017-03-21T06:37:05.627Z,91.24
2017-03-21T06:38:05.606Z,91.05
2017-03-21T06:39:05.587Z,90.48
2017-03-21T06:40:05.268Z,90.58
2017-03-21T06:41:05.569Z,90.01
2017-03-21T06:42:05.248Z,89.54
2017-03-21T06:43:05.540Z,89.35
2017-03-21T06:44:05.510Z,88.97
2017-03-21T06:45:05.499Z,88.64
2017-03-21T06:46:05.499Z,88.17
2017-03-21T06:47:05.482Z,87.98
2017-03-21T06:48:05.478Z,87.45
2017-03-21T06:49:05.451Z,87.35
2017-03-21T06:50:05.438Z,87.35
2017-03-21T06:51:05.418Z,87.54
2017-03-21T06:52:05.400Z,86.98
2017-03-21T06:53:05.398Z,87.35
2017-03-21T06:54:05.374Z,87.26
2017-03-21T06:55:05.368Z,87.54
2017-03-21T07:00:51.635Z,88.45
2017-03-21T07:01:51.607Z,88.92
2017-03-21T07:02:51.595Z,88.92
2017-03-21T07:03:51.594Z,89.49
2017-03-21T07:04:51.783Z,89.49
2017-03-21T07:05:51.551Z,89.01
2017-03-21T07:06:51.539Z,89.34
2017-03-21T07:07:51.539Z,89.06
2017-03-21T07:08:51.525Z,88.96
2017-03-21T07:09:51.517Z,88.78
2017-03-21T07:10:51.503Z,88.4
2017-03-21T07:11:51.486Z,88.06
2017-03-21T07:12:51.460Z,88.06
2017-03-21T07:13:51.449Z,88.35
2017-03-21T07:14:51.435Z,88.25
2017-03-21T07:15:51.124Z,88.35
2017-03-21T07:16:51.423Z,88.54
2017-03-21T07:17:51.402Z,89.25
2017-03-21T07:18:51.385Z,89.34
2017-03-21T07:19:51.373Z,88.87
2017-03-21T07:20:51.363Z,88.63
2017-03-21T07:21:51.357Z,88.73
2017-03-21T07:22:51.342Z,88.44
2017-03-21T07:23:51.334Z,88.01
2017-03-21T07:24:51.311Z,87.63
2017-03-21T07:25:51.307Z,87.87
2017-03-21T07:26:51.187Z,87.58
2017-03-21T07:27:51.274Z,87.39
2017-03-21T07:28:51.275Z,87.68
2017-03-21T07:29:51.251Z,88.24
2017-03-21T07:30:51.242Z,88.62
2017-03-21T07:31:51.228Z,88.39
2017-03-21T07:32:51.230Z,88.87
2017-03-21T07:33:51.221Z,88.77
2017-03-21T07:34:51.203Z,88.91
2017-03-21T07:35:51.180Z,89
2017-03-21T07:37:05.792Z,90.48
2017-03-21T07:37:51.379Z,90.91
2017-03-21T07:38:51.162Z,91.09
2017-03-21T07:39:51.143Z,91.38
2017-03-21T07:40:50.825Z,92.14
2017-03-21T07:41:51.032Z,91.85
2017-03-21T07:43:04.521Z,91.66
2017-03-21T07:43:51.096Z,91.76
2017-03-21T07:44:51.086Z,90.95
2017-03-21T07:45:51.071Z,91.09
2017-03-21T07:46:51.060Z,91.28
2017-03-21T07:47:51.052Z,91.85
2017-03-21T07:48:51.054Z,91.94
2017-03-21T07:49:51.025Z,92.38
2017-03-21T07:50:51.029Z,92.9
2017-03-21T07:51:51.018Z,93.65
2017-03-21T07:52:51.010Z,94.13
2017-03-21T07:53:50.996Z,93.94
2017-03-21T07:54:50.986Z,94.32
2017-03-21T07:55:50.958Z,95.36
2017-03-21T07:56:50.954Z,94.79
2017-03-21T07:57:50.954Z,95.07
2017-03-21T07:58:50.931Z,95.74
2017-03-21T07:59:50.930Z,95.55
2017-03-21T08:00:50.915Z,95.26
2017-03-21T08:01:50.896Z,96.12
2017-03-21T08:02:50.894Z,96.5
2017-03-21T08:03:50.581Z,96.64
2017-03-21T08:04:50.866Z,97.21
2017-03-21T08:05:50.856Z,97.78
2017-03-21T08:06:50.838Z,97.87
2017-03-21T08:07:50.831Z,98.25
2017-03-21T08:08:51.029Z,98.77
2017-03-21T08:09:50.811Z,99.05
2017-03-21T08:10:50.799Z,99.05
2017-03-21T08:11:50.789Z,99.24
2017-03-21T08:12:50.765Z,99.52
2017-03-21T08:13:50.964Z,99.81
2017-03-21T08:14:50.944Z,99.99
2017-03-21T08:15:50.730Z,99.52
2017-03-21T08:16:50.719Z,99.99
2017-03-21T08:17:50.698Z,99.99
2017-03-21T08:18:50.699Z,99.99
2017-03-21T08:19:50.680Z,99.99
2017-03-21T08:20:50.668Z,99.99
2017-03-21T08:21:50.645Z,99.99
2017-03-21T08:22:50.634Z,99.99
2017-03-21T08:23:50.628Z,99.99
2017-03-21T08:24:50.606Z,99.99
2017-03-21T08:25:50.593Z,99.99
2017-03-21T08:26:50.587Z,99.99
2017-03-21T08:27:50.573Z,99.99
2017-03-21T08:28:50.557Z,99.99
2017-03-21T08:29:50.544Z,99.99
2017-03-21T08:30:50.527Z,99.99
2017-03-21T08:31:50.517Z,99.99
2017-03-21T08:32:50.503Z,99.99
2017-03-21T08:33:50.491Z,99.99
2017-03-21T08:34:50.470Z,99.99
2017-03-21T08:35:50.451Z,99.99
2017-03-21T08:36:50.445Z,99.99
2017-03-21T08:37:50.432Z,99.99
2017-03-21T08:38:50.418Z,99.99
2017-03-21T08:39:50.401Z,99.99
2017-03-21T08:40:50.380Z,99.99
2017-03-21T08:41:50.375Z,99.99
2017-03-21T08:42:50.361Z,99.99
2017-03-21T08:43:50.044Z,99.99
2017-03-21T08:44:50.212Z,99.99
2017-03-21T08:45:50.313Z,99.99
2017-03-21T08:46:50.290Z,99.99
2017-03-21T08:47:50.282Z,99.99
2017-03-21T08:48:50.274Z,99.99
2017-03-21T08:49:50.471Z,99.99
2017-03-21T08:50:50.156Z,99.99
2017-03-21T08:51:49.933Z,99.99
2017-03-21T08:52:50.213Z,99.99
2017-03-21T08:53:50.200Z,99.99
2017-03-21T08:54:50.196Z,99.99
2017-03-21T08:55:50.184Z,99.99
2017-03-21T08:56:50.160Z,99.99
2017-03-21T08:57:50.156Z,99.99
2017-03-21T08:58:50.133Z,99.99
2017-03-21T08:59:50.133Z,99.99
2017-03-21T09:00:50.103Z,99.99
2017-03-21T09:01:50.093Z,99.99
2017-03-21T09:02:50.089Z,99.99
2017-03-21T09:03:50.075Z,99.99
2017-03-21T09:04:50.049Z,99.99
2017-03-21T09:05:50.048Z,99.99
2017-03-21T09:09:21.836Z,99.99
2017-03-21T09:09:49.991Z,99.99
2017-03-21T09:10:49.971Z,99.99
2017-03-21T09:11:49.973Z,99.99
2017-03-21T09:12:49.964Z,99.99
2017-03-21T09:13:49.946Z,99.99
2017-03-21T09:14:49.626Z,99.99
2017-03-21T09:15:49.613Z,99.99
2017-03-21T09:16:49.598Z,99.99
2017-03-21T09:17:49.882Z,99.99
2017-03-21T09:18:49.870Z,99.99
2017-03-21T09:19:49.568Z,99.99
2017-03-21T09:20:49.546Z,99.99
2017-03-21T09:21:49.831Z,99.99
2017-03-21T09:22:49.524Z,99.99
2017-03-21T09:23:49.510Z,99.99
2017-03-21T09:24:49.498Z,99.99
2017-03-21T09:25:49.480Z,99.99
2017-03-21T09:26:49.484Z,99.99
2017-03-21T09:27:49.458Z,99.99
2017-03-21T09:28:49.746Z,99.99
2017-03-21T09:29:49.737Z,99.99
2017-03-21T09:30:49.728Z,99.99
2017-03-21T09:31:49.712Z,99.99
2017-03-21T09:32:49.713Z,99.99
2017-03-21T09:33:49.688Z,99.99
2017-03-21T09:34:49.678Z,99.99
2017-03-21T09:35:49.370Z,99.99
2017-03-21T09:36:49.658Z,99.99
2017-03-21T09:37:49.345Z,99.99
2017-03-21T09:38:49.635Z,99.99
2017-03-21T09:39:49.620Z,99.99
2017-03-21T09:40:49.611Z,99.99
2017-03-21T09:41:49.607Z,99.99
2017-03-21T09:42:49.587Z,99.99
2017-03-21T09:43:49.294Z,99.99
2017-03-21T09:44:49.260Z,99.99
2017-03-21T09:45:49.555Z,99.99
2017-03-21T09:46:49.540Z,99.99
2017-03-21T09:47:49.538Z,99.99
2017-03-21T09:48:49.519Z,99.99
2017-03-21T09:49:49.501Z,99.99
2017-03-21T09:50:49.489Z,99.99
2017-03-21T09:51:49.478Z,99.99
2017-03-21T09:52:49.473Z,99.99
2017-03-21T09:53:49.154Z,99.99
2017-03-21T09:54:49.147Z,99.99
2017-03-21T09:55:49.131Z,99.99
2017-03-21T09:56:49.111Z,99.99
2017-03-21T09:57:49.407Z,99.99
2017-03-21T09:58:49.404Z,99.99
2017-03-21T09:59:49.386Z,99.99
2017-03-21T10:00:49.370Z,99.99
2017-03-21T10:01:49.359Z,99.99
2017-03-21T10:02:49.348Z,99.99
2017-03-21T10:03:49.341Z,99.99
2017-03-21T10:04:49.339Z,99.99
2017-03-21T10:05:49.332Z,99.99
2017-03-21T10:06:49.312Z,99.99
2017-03-21T10:07:49.298Z,99.99
2017-03-21T10:08:49.298Z,99.99
2017-03-21T10:09:49.288Z,99.99
2017-03-21T10:10:49.273Z,99.99
2017-03-21T10:11:49.259Z,99.99
2017-03-21T10:12:49.255Z,99.99
2017-03-21T10:13:49.256Z,99.99
2017-03-21T10:14:49.249Z,99.99
2017-03-21T10:15:49.241Z,99.99
2017-03-21T10:16:49.218Z,99.99
2017-03-21T10:17:49.212Z,99.99
2017-03-21T10:18:49.218Z,99.99
2017-03-21T10:19:49.200Z,99.99
2017-03-21T10:20:49.200Z,99.99
2017-03-21T10:21:49.193Z,99.99
2017-03-21T10:22:49.187Z,99.99
2017-03-21T10:23:49.172Z,99.99
2017-03-21T10:24:49.181Z,99.99
2017-03-21T10:25:49.155Z,99.99
2017-03-21T10:26:49.150Z,99.99
2017-03-21T10:27:49.143Z,99.99
2017-03-21T10:28:49.137Z,99.99
2017-03-21T10:29:49.141Z,99.99
2017-03-21T10:30:49.127Z,99.99
2017-03-21T10:31:49.131Z,99.99
2017-03-21T10:32:49.114Z,99.99
2017-03-21T10:33:49.105Z,99.99
2017-03-21T10:34:49.106Z,99.99
2017-03-21T10:35:49.112Z,99.99
2017-03-21T10:36:49.095Z,99.99
2017-03-21T10:37:49.101Z,99.99
2017-03-21T10:38:49.095Z,99.99
2017-03-21T10:39:48.784Z,99.99
2017-03-21T10:40:49.076Z,99.99
2017-03-21T10:41:49.065Z,99.99
2017-03-21T10:42:49.069Z,99.99
2017-03-21T10:43:49.058Z,99.99
2017-03-21T10:44:49.065Z,99.99
2017-03-21T10:45:49.056Z,99.99
2017-03-21T10:46:49.055Z,99.99
2017-03-21T10:47:49.036Z,99.99
2017-03-21T10:48:49.040Z,99.99
2017-03-21T10:49:49.041Z,99.99
2017-03-21T10:50:49.030Z,99.99
2017-03-21T10:51:49.027Z,99.99
2017-03-21T10:52:49.005Z,99.99
2017-03-21T10:53:49.000Z,99.99
2017-03-21T10:54:49.002Z,99.99
2017-03-21T10:55:49.000Z,99.99
2017-03-21T10:56:49.005Z,99.99
2017-03-21T10:57:48.982Z,99.99
2017-03-21T10:58:48.987Z,99.99
2017-03-21T10:59:48.983Z,99.99
2017-03-21T11:00:48.976Z,99.99
2017-03-21T11:01:48.970Z,99.99
2017-03-21T11:02:48.952Z,99.99
2017-03-21T11:03:48.946Z,99.99
2017-03-21T11:04:48.954Z,99.99
2017-03-21T11:05:48.936Z,99.99
2017-03-21T11:06:48.634Z,99.99
2017-03-21T11:07:48.917Z,99.99
2017-03-21T11:08:48.916Z,99.99
2017-03-21T11:09:48.904Z,99.99
2017-03-21T11:10:48.896Z,99.99
2017-03-21T11:11:48.905Z,99.99
2017-03-21T11:12:48.896Z,99.99
2017-03-21T11:13:48.890Z,99.99
2017-03-21T11:14:48.886Z,99.99
2017-03-21T11:15:48.866Z,99.99
2017-03-21T11:16:48.861Z,99.99
2017-03-21T11:17:48.846Z,99.99
2017-03-21T11:18:48.848Z,99.99
2017-03-21T11:19:48.849Z,99.99
2017-03-21T11:20:48.844Z,99.99
2017-03-21T11:21:48.836Z,99.99
2017-03-21T11:22:48.827Z,99.99
2017-03-21T11:23:48.811Z,99.99
2017-03-21T11:24:48.811Z,99.99
2017-03-21T11:25:48.808Z,99.99
2017-03-21T11:26:48.787Z,99.99
2017-03-21T11:27:48.783Z,99.99
2017-03-21T11:28:48.780Z,99.99
2017-03-21T11:29:48.770Z,99.99
2017-03-21T11:30:48.770Z,99.99
2017-03-21T11:31:48.752Z,99.99
2017-03-21T11:32:48.744Z,99.99
2017-03-21T11:33:48.751Z,99.99
2017-03-21T11:34:48.740Z,99.99
2017-03-21T11:35:48.724Z,99.99
2017-03-21T11:36:48.716Z,99.99
2017-03-21T11:37:48.705Z,99.99
2017-03-21T11:38:48.704Z,99.99
2017-03-21T11:39:48.699Z,99.99
2017-03-21T11:40:48.686Z,99.99
2017-03-21T11:41:48.681Z,99.99
2017-03-21T11:42:48.686Z,99.99
2017-03-21T11:43:48.677Z,99.99
2017-03-21T11:44:48.668Z,99.99
2017-03-21T11:45:48.662Z,99.99
2017-03-21T11:46:48.642Z,99.99
2017-03-21T11:47:48.650Z,99.99
2017-03-21T11:48:48.630Z,99.99
2017-03-21T11:49:48.639Z,99.99
2017-03-21T11:50:48.623Z,99.99
2017-03-21T11:51:48.622Z,99.99
2017-03-21T11:52:48.605Z,99.99
2017-03-21T11:53:48.598Z,99.99
2017-03-21T11:54:48.618Z,99.99
2017-03-21T11:55:48.581Z,99.99
2017-03-21T11:56:48.574Z,99.99
2017-03-21T11:57:48.570Z,99.99
2017-03-21T11:58:48.565Z,99.99
2017-03-21T11:59:48.551Z,99.99
2017-03-21T12:00:48.559Z,99.99
2017-03-21T12:01:48.553Z,99.99
2017-03-21T12:02:48.546Z,99.99
2017-03-21T12:03:48.522Z,99.99
2017-03-21T12:04:48.527Z,99.99
2017-03-21T12:05:48.507Z,99.99
2017-03-21T12:06:48.508Z,99.99
2017-03-21T12:07:48.504Z,99.99
2017-03-21T12:08:48.499Z,99.99
2017-03-21T12:09:48.477Z,99.99
2017-03-21T12:10:48.472Z,99.99
2017-03-21T12:11:48.462Z,99.99
2017-03-21T12:12:48.455Z,99.99
2017-03-21T12:13:48.457Z,99.99
2017-03-21T12:14:48.452Z,99.99
2017-03-21T12:15:48.541Z,99.99
2017-03-21T12:16:48.429Z,99.99
2017-03-21T12:17:48.420Z,99.99
2017-03-21T12:18:48.421Z,99.99
2017-03-21T12:19:48.418Z,99.99
2017-03-21T12:20:48.406Z,99.99
2017-03-21T12:21:48.407Z,99.99
2017-03-21T12:22:48.399Z,99.99
2017-03-21T12:23:48.382Z,99.99
2017-03-21T12:24:48.378Z,99.99
2017-03-21T12:25:48.366Z,99.99
2017-03-21T12:26:48.364Z,99.99
2017-03-21T12:27:48.366Z,99.99
2017-03-21T12:28:48.352Z,99.99
2017-03-21T12:29:48.343Z,99.99
2017-03-21T12:30:48.331Z,99.99
2017-03-21T12:31:48.330Z,99.99
2017-03-21T12:32:48.329Z,99.99
2017-03-21T12:33:48.324Z,99.99
2017-03-21T12:34:48.318Z,99.99
2017-03-21T12:35:48.299Z,99.99
2017-03-21T12:36:48.291Z,99.99
2017-03-21T12:37:48.296Z,99.99
2017-03-21T12:38:48.277Z,99.99
2017-03-21T12:39:48.270Z,99.99
2017-03-21T12:40:48.275Z,99.99
2017-03-21T12:41:48.267Z,99.99
2017-03-21T12:42:48.250Z,99.99
2017-03-21T12:43:48.240Z,99.99
2017-03-21T12:44:47.937Z,99.99
2017-03-21T12:45:47.930Z,99.99
2017-03-21T12:46:48.235Z,99.99
2017-03-21T12:47:48.222Z,99.99
2017-03-21T12:48:48.220Z,99.99
2017-03-21T12:49:48.201Z,99.99
2017-03-21T12:50:48.196Z,99.99
2017-03-21T12:51:48.201Z,99.99
2017-03-21T12:52:48.193Z,99.99
2017-03-21T12:53:48.179Z,99.99
2017-03-21T12:54:47.881Z,99.99
2017-03-21T12:55:48.167Z,99.99
2017-03-21T12:56:48.169Z,99.99
2017-03-21T12:57:48.153Z,99.99
2017-03-21T12:58:48.150Z,99.99
2017-03-21T12:59:48.153Z,99.99
2017-03-21T13:06:16.330Z,99.99
2017-03-21T13:07:16.624Z,99.99